sensor_id;sensor_type;location;lat;lon;timestamp;pressure;altitude;pressure_sealevel;temperature;humidity
49841;BME280;35738;49.890;5.930;2024-03-23T00:55:59;95057.25;;;5.87;100.00
49841;BME280;35738;49.890;5.930;2024-03-23T00:58:25;95068.00;;;5.86;100.00
49841;BME280;35738;49.890;5.930;2024-03-23T01:00:51;95073.56;;;5.64;100.00
49841;BME280;35738;49.890;5.930;2024-03-23T01:03:16;95076.28;;;5.28;100.00
49841;BME280;35738;49.890;5.930;2024-03-23T01:05:42;95095.13;;;5.05;100.00
49841;BME280;35738;49.890;5.930;2024-03-23T01:08:07;95102.19;;;5.04;100.00
49841;BME280;35738;49.890;5.930;2024-03-23T01:10:33;95104.00;;;4.99;100.00
49841;BME280;35738;49.890;5.930;2024-03-23T01:12:59;95109.78;;;4.96;100.00
49841;BME280;35738;49.890;5.930;2024-03-23T01:15:24;95118.13;;;4.67;100.00
49841;BME280;35738;49.890;5.930;2024-03-23T01:17:50;95125.66;;;4.48;100.00
49841;BME280;35738;49.890;5.930;2024-03-23T01:20:15;95130.03;;;4.22;100.00
49841;BME280;35738;49.890;5.930;2024-03-23T01:22:42;95125.81;;;4.11;100.00
49841;BME280;35738;49.890;5.930;2024-03-23T01:25:08;95132.56;;;4.02;100.00
49841;BME280;35738;49.890;5.930;2024-03-23T01:27:33;95126.81;;;4.00;100.00
49841;BME280;35738;49.890;5.930;2024-03-23T01:29:59;95112.44;;;3.92;100.00
49841;BME280;35738;49.890;5.930;2024-03-23T01:32:25;95111.66;;;3.92;100.00
49841;BME280;35738;49.890;5.930;2024-03-23T01:34:51;95107.69;;;3.89;100.00
49841;BME280;35738;49.890;5.930;2024-03-23T01:37:16;95113.16;;;3.83;100.00
49841;BME280;35738;49.890;5.930;2024-03-23T01:39:42;95113.69;;;3.80;100.00
49841;BME280;35738;49.890;5.930;2024-03-23T01:42:08;95104.53;;;3.77;100.00
49841;BME280;35738;49.890;5.930;2024-03-23T01:44:33;95104.53;;;3.77;100.00
49841;BME280;35738;49.890;5.930;2024-03-23T01:46:59;95105.81;;;3.75;100.00
49841;BME280;35738;49.890;5.930;2024-03-23T01:49:24;95110.53;;;3.78;100.00
49841;BME280;35738;49.890;5.930;2024-03-23T01:51:50;95111.56;;;3.77;100.00
49841;BME280;35738;49.890;5.930;2024-03-23T01:54:16;95113.66;;;3.75;100.00
49841;BME280;35738;49.890;5.930;2024-03-23T01:56:42;95110.47;;;3.68;100.00
49841;BME280;35738;49.890;5.930;2024-03-23T01:59:07;95097.69;;;3.66;100.00
49841;BME280;35738;49.890;5.930;2024-03-23T02:01:36;95090.13;;;3.64;100.00
49841;BME280;35738;49.890;5.930;2024-03-23T02:04:02;95086.97;;;3.62;100.00
49841;BME280;35738;49.890;5.930;2024-03-23T02:06:28;95086.19;;;3.62;100.00
49841;BME280;35738;49.890;5.930;2024-03-23T02:08:57;95095.34;;;3.64;100.00
49841;BME280;35738;49.890;5.930;2024-03-23T02:11:23;95088.53;;;3.63;100.00
49841;BME280;35738;49.890;5.930;2024-03-23T02:13:49;95090.63;;;3.67;100.00
49841;BME280;35738;49.890;5.930;2024-03-23T02:16:14;95089.09;;;3.71;100.00
49841;BME280;35738;49.890;5.930;2024-03-23T02:18:40;95082.81;;;3.72;100.00
49841;BME280;35738;49.890;5.930;2024-03-23T02:21:05;95092.25;;;3.73;100.00
49841;BME280;35738;49.890;5.930;2024-03-23T02:23:31;95091.47;;;3.72;100.00
49841;BME280;35738;49.890;5.930;2024-03-23T02:25:57;95087.50;;;3.70;100.00
49841;BME280;35738;49.890;5.930;2024-03-23T02:28:22;95091.22;;;3.74;100.00
49841;BME280;35738;49.890;5.930;2024-03-23T02:30:49;95089.88;;;3.71;100.00
49841;BME280;35738;49.890;5.930;2024-03-23T02:33:15;95093.81;;;3.74;100.00
49841;BME280;35738;49.890;5.930;2024-03-23T02:35:40;95104.75;;;3.71;100.00
49841;BME280;35738;49.890;5.930;2024-03-23T02:38:06;95107.91;;;3.73;100.00
49841;BME280;35738;49.890;5.930;2024-03-23T02:40:32;95101.09;;;3.72;100.00
49841;BME280;35738;49.890;5.930;2024-03-23T02:42:58;95108.41;;;3.70;100.00
49841;BME280;35738;49.890;5.930;2024-03-23T02:45:23;95094.78;;;3.57;100.00
49841;BME280;35738;49.890;5.930;2024-03-23T02:47:49;95096.28;;;3.48;100.00
49841;BME280;35738;49.890;5.930;2024-03-23T02:50:18;95100.34;;;3.29;100.00
49841;BME280;35738;49.890;5.930;2024-03-23T02:52:44;95103.75;;;3.29;100.00
49841;BME280;35738;49.890;5.930;2024-03-23T02:55:10;95099.28;;;3.25;100.00
49841;BME280;35738;49.890;5.930;2024-03-23T02:57:36;95103.88;;;3.13;100.00
49841;BME280;35738;49.890;5.930;2024-03-23T03:00:02;95123.66;;;3.09;100.00
49841;BME280;35738;49.890;5.930;2024-03-23T03:02:27;95124.47;;;3.09;100.00
49841;BME280;35738;49.890;5.930;2024-03-23T03:04:53;95139.03;;;2.78;100.00
49841;BME280;35738;49.890;5.930;2024-03-23T03:07:19;95137.91;;;2.64;100.00
49841;BME280;35738;49.890;5.930;2024-03-23T03:09:44;95155.28;;;2.58;100.00
49841;BME280;35738;49.890;5.930;2024-03-23T03:12:10;95151.00;;;2.47;100.00
49841;BME280;35738;49.890;5.930;2024-03-23T03:14:36;95141.81;;;2.39;100.00
49841;BME280;35738;49.890;5.930;2024-03-23T03:17:01;95155.47;;;2.25;100.00
49841;BME280;35738;49.890;5.930;2024-03-23T03:19:27;95163.97;;;2.20;100.00
49841;BME280;35738;49.890;5.930;2024-03-23T03:21:53;95179.13;;;2.23;100.00
49841;BME280;35738;49.890;5.930;2024-03-23T03:24:19;95171.16;;;2.08;100.00
49841;BME280;35738;49.890;5.930;2024-03-23T03:26:45;95154.38;;;1.99;100.00
49841;BME280;35738;49.890;5.930;2024-03-23T03:29:10;95164.72;;;1.94;100.00
49841;BME280;35738;49.890;5.930;2024-03-23T03:31:40;95163.63;;;1.90;100.00
49841;BME280;35738;49.890;5.930;2024-03-23T03:34:06;95164.97;;;1.92;100.00
49841;BME280;35738;49.890;5.930;2024-03-23T03:36:32;95172.47;;;1.89;100.00
49841;BME280;35738;49.890;5.930;2024-03-23T03:38:57;95171.69;;;1.88;100.00
49841;BME280;35738;49.890;5.930;2024-03-23T03:41:23;95173.25;;;1.89;100.00
49841;BME280;35738;49.890;5.930;2024-03-23T03:43:49;95171.97;;;1.92;100.00
49841;BME280;35738;49.890;5.930;2024-03-23T03:46:14;95182.38;;;1.92;100.00
49841;BME280;35738;49.890;5.930;2024-03-23T03:48:40;95186.81;;;1.91;100.00
49841;BME280;35738;49.890;5.930;2024-03-23T03:51:06;95176.69;;;1.95;100.00
49841;BME280;35738;49.890;5.930;2024-03-23T03:53:31;95175.63;;;1.91;100.00
49841;BME280;35738;49.890;5.930;2024-03-23T03:56:00;95179.25;;;1.90;100.00
49841;BME280;35738;49.890;5.930;2024-03-23T03:58:27;95179.72;;;1.87;100.00
49841;BME280;35738;49.890;5.930;2024-03-23T04:00:53;95174.44;;;1.81;100.00
49841;BME280;35738;49.890;5.930;2024-03-23T04:03:19;95183.56;;;1.84;100.00
49841;BME280;35738;49.890;5.930;2024-03-23T04:05:53;95174.44;;;1.81;100.00
49841;BME280;35738;49.890;5.930;2024-03-23T04:08:20;95180.97;;;1.84;100.00
49841;BME280;35738;49.890;5.930;2024-03-23T04:10:45;95191.22;;;1.91;100.00
49841;BME280;35738;49.890;5.930;2024-03-23T04:13:14;95185.53;;;1.94;100.00
49841;BME280;35738;49.890;5.930;2024-03-23T04:15:40;95185.53;;;1.94;100.00
49841;BME280;35738;49.890;5.930;2024-03-23T04:18:06;95177.69;;;1.89;100.00
49841;BME280;35738;49.890;5.930;2024-03-23T04:20:32;95181.31;;;1.88;100.00
49841;BME280;35738;49.890;5.930;2024-03-23T04:23:01;95199.44;;;1.82;100.00
49841;BME280;35738;49.890;5.930;2024-03-23T04:25:26;95196.13;;;1.87;100.00
49841;BME280;35738;49.890;5.930;2024-03-23T04:27:52;95194.84;;;1.90;100.00
49841;BME280;35738;49.890;5.930;2024-03-23T04:30:18;95199.09;;;1.96;100.00
49841;BME280;35738;49.890;5.930;2024-03-23T04:32:44;95199.09;;;1.96;100.00
49841;BME280;35738;49.890;5.930;2024-03-23T04:35:10;95201.22;;;1.99;100.00
49841;BME280;35738;49.890;5.930;2024-03-23T04:37:37;95191.88;;;2.03;100.00
49841;BME280;35738;49.890;5.930;2024-03-23T04:40:03;95203.22;;;1.92;100.00
49841;BME280;35738;49.890;5.930;2024-03-23T04:42:29;95207.47;;;1.81;100.00
49841;BME280;35738;49.890;5.930;2024-03-23T04:44:55;95212.78;;;1.69;100.00
49841;BME280;35738;49.890;5.930;2024-03-23T04:47:21;95208.63;;;1.68;100.00
49841;BME280;35738;49.890;5.930;2024-03-23T04:49:47;95209.06;;;1.65;100.00
49841;BME280;35738;49.890;5.930;2024-03-23T04:52:12;95198.13;;;1.63;100.00
49841;BME280;35738;49.890;5.930;2024-03-23T04:54:39;95200.09;;;1.56;100.00
49841;BME280;35738;49.890;5.930;2024-03-23T04:57:08;95206.41;;;1.43;100.00
49841;BME280;35738;49.890;5.930;2024-03-23T04:59:33;95219.09;;;1.40;100.00
49841;BME280;35738;49.890;5.930;2024-03-23T05:01:59;95214.47;;;1.42;100.00
49841;BME280;35738;49.890;5.930;2024-03-23T05:04:25;95203.69;;;1.33;100.00
49841;BME280;35738;49.890;5.930;2024-03-23T05:06:51;95206.97;;;1.29;100.00
49841;BME280;35738;49.890;5.930;2024-03-23T05:09:17;95217.28;;;1.24;100.00
49841;BME280;35738;49.890;5.930;2024-03-23T05:11:42;95222.00;;;1.27;100.00
49841;BME280;35738;49.890;5.930;2024-03-23T05:14:08;95217.94;;;1.31;100.00
49841;BME280;35738;49.890;5.930;2024-03-23T05:16:34;95223.59;;;1.28;100.00
49841;BME280;35738;49.890;5.930;2024-03-23T05:18:59;95238.88;;;1.24;100.00
49841;BME280;35738;49.890;5.930;2024-03-23T05:21:25;95219.09;;;1.23;100.00
49841;BME280;35738;49.890;5.930;2024-03-23T05:23:50;95223.50;;;1.23;100.00
49841;BME280;35738;49.890;5.930;2024-03-23T05:26:17;95234.94;;;1.21;100.00
49841;BME280;35738;49.890;5.930;2024-03-23T05:28:43;95236.03;;;1.26;100.00
49841;BME280;35738;49.890;5.930;2024-03-23T05:31:09;95226.72;;;1.30;100.00
49841;BME280;35738;49.890;5.930;2024-03-23T05:33:37;95231.06;;;1.41;100.00
49841;BME280;35738;49.890;5.930;2024-03-23T05:36:06;95242.50;;;1.40;100.00
49841;BME280;35738;49.890;5.930;2024-03-23T05:38:36;95239.03;;;1.51;100.00
49841;BME280;35738;49.890;5.930;2024-03-23T05:41:02;95244.25;;;1.51;100.00
49841;BME280;35738;49.890;5.930;2024-03-23T05:43:28;95244.38;;;1.61;100.00
49841;BME280;35738;49.890;5.930;2024-03-23T05:45:58;95240.28;;;1.65;100.00
49841;BME280;35738;49.890;5.930;2024-03-23T05:48:25;95242.00;;;1.76;100.00
49841;BME280;35738;49.890;5.930;2024-03-23T05:50:51;95238.88;;;1.74;100.00
49841;BME280;35738;49.890;5.930;2024-03-23T05:53:18;95246.59;;;1.69;100.00
49841;BME280;35738;49.890;5.930;2024-03-23T05:55:44;95244.84;;;1.75;100.00
49841;BME280;35738;49.890;5.930;2024-03-23T05:58:10;95247.53;;;1.80;100.00
49841;BME280;35738;49.890;5.930;2024-03-23T06:00:36;95261.25;;;1.75;100.00
49841;BME280;35738;49.890;5.930;2024-03-23T06:03:02;95266.22;;;1.77;100.00
49841;BME280;35738;49.890;5.930;2024-03-23T06:05:27;95271.72;;;1.80;100.00
49841;BME280;35738;49.890;5.930;2024-03-23T06:07:53;95272.38;;;1.88;100.00
49841;BME280;35738;49.890;5.930;2024-03-23T06:10:19;95274.56;;;1.96;100.00
49841;BME280;35738;49.890;5.930;2024-03-23T06:12:47;95286.59;;;2.02;100.00
49841;BME280;35738;49.890;5.930;2024-03-23T06:15:14;95275.25;;;2.08;100.00
49841;BME280;35738;49.890;5.930;2024-03-23T06:17:40;95272.53;;;2.20;100.00
49841;BME280;35738;49.890;5.930;2024-03-23T06:20:06;95281.56;;;2.56;100.00
49841;BME280;35738;49.890;5.930;2024-03-23T06:22:32;95271.94;;;2.56;100.00
49841;BME280;35738;49.890;5.930;2024-03-23T06:24:59;95278.72;;;2.57;100.00
49841;BME280;35738;49.890;5.930;2024-03-23T06:27:25;95275.53;;;2.28;100.00
49841;BME280;35738;49.890;5.930;2024-03-23T06:29:50;95284.06;;;2.46;100.00
49841;BME280;35738;49.890;5.930;2024-03-23T06:32:17;95286.69;;;2.46;100.00
49841;BME280;35738;49.890;5.930;2024-03-23T06:34:42;95287.34;;;2.58;100.00
49841;BME280;35738;49.890;5.930;2024-03-23T06:37:08;95288.38;;;2.57;100.00
49841;BME280;35738;49.890;5.930;2024-03-23T06:39:38;95284.00;;;2.40;100.00
49841;BME280;35738;49.890;5.930;2024-03-23T06:42:04;95285.56;;;2.41;100.00
49841;BME280;35738;49.890;5.930;2024-03-23T06:44:30;95298.38;;;2.43;100.00
49841;BME280;35738;49.890;5.930;2024-03-23T06:46:56;95295.75;;;2.43;100.00
49841;BME280;35738;49.890;5.930;2024-03-23T06:49:22;95298.44;;;2.48;100.00
49841;BME280;35738;49.890;5.930;2024-03-23T06:51:48;95292.50;;;2.53;100.00
49841;BME280;35738;49.890;5.930;2024-03-23T06:54:14;95298.25;;;2.55;100.00
49841;BME280;35738;49.890;5.930;2024-03-23T06:56:40;95301.16;;;2.58;100.00
49841;BME280;35738;49.890;5.930;2024-03-23T06:59:06;95308.25;;;2.63;100.00
49841;BME280;35738;49.890;5.930;2024-03-23T07:01:32;95297.03;;;2.62;100.00
49841;BME280;35738;49.890;5.930;2024-03-23T07:03:57;95305.16;;;2.66;100.00
49841;BME280;35738;49.890;5.930;2024-03-23T07:06:23;95305.22;;;2.71;100.00
49841;BME280;35738;49.890;5.930;2024-03-23T07:08:49;95311.50;;;2.75;100.00
49841;BME280;35738;49.890;5.930;2024-03-23T07:11:24;95317.22;;;2.72;100.00
49841;BME280;35738;49.890;5.930;2024-03-23T07:13:50;95301.63;;;2.77;100.00
49841;BME280;35738;49.890;5.930;2024-03-23T07:16:16;95306.84;;;2.77;100.00
49841;BME280;35738;49.890;5.930;2024-03-23T07:18:42;95309.56;;;2.87;100.00
49841;BME280;35738;49.890;5.930;2024-03-23T07:21:08;95314.34;;;2.95;100.00
49841;BME280;35738;49.890;5.930;2024-03-23T07:23:34;95326.91;;;2.98;100.00
49841;BME280;35738;49.890;5.930;2024-03-23T07:26:04;95327.88;;;2.92;100.00
49841;BME280;35738;49.890;5.930;2024-03-23T07:28:31;95344.47;;;2.86;100.00
49841;BME280;35738;49.890;5.930;2024-03-23T07:31:05;95347.63;;;2.88;100.00
49841;BME280;35738;49.890;5.930;2024-03-23T07:33:32;95348.59;;;3.04;100.00
49841;BME280;35738;49.890;5.930;2024-03-23T07:35:58;95339.63;;;3.17;100.00
49841;BME280;35738;49.890;5.930;2024-03-23T07:38:28;95344.94;;;3.27;100.00
49841;BME280;35738;49.890;5.930;2024-03-23T07:41:10;95337.97;;;3.11;100.00
49841;BME280;35738;49.890;5.930;2024-03-23T07:43:37;95341.38;;;3.11;100.00
49841;BME280;35738;49.890;5.930;2024-03-23T07:46:04;95357.44;;;3.25;100.00
49841;BME280;35738;49.890;5.930;2024-03-23T07:48:30;95354.69;;;3.15;100.00
49841;BME280;35738;49.890;5.930;2024-03-23T07:51:06;95355.28;;;3.17;100.00
49841;BME280;35738;49.890;5.930;2024-03-23T07:53:33;95344.19;;;3.04;100.00
49841;BME280;35738;49.890;5.930;2024-03-23T07:58:29;95362.16;;;3.28;100.00
49841;BME280;35738;49.890;5.930;2024-03-23T08:00:56;95354.69;;;3.15;100.00
49841;BME280;35738;49.890;5.930;2024-03-23T08:03:22;95362.44;;;3.31;100.00
49841;BME280;35738;49.890;5.930;2024-03-23T08:05:48;95361.66;;;3.31;100.00
49841;BME280;35738;49.890;5.930;2024-03-23T08:08:14;95358.03;;;3.59;100.00
49841;BME280;35738;49.890;5.930;2024-03-23T08:10:52;95363.66;;;3.73;100.00
49841;BME280;35738;49.890;5.930;2024-03-23T08:13:20;95357.53;;;3.62;100.00
49841;BME280;35738;49.890;5.930;2024-03-23T08:15:47;95366.63;;;3.32;100.00
49841;BME280;35738;49.890;5.930;2024-03-23T08:18:12;95372.69;;;3.38;100.00
49841;BME280;35738;49.890;5.930;2024-03-23T08:20:39;95362.34;;;3.48;100.00
49841;BME280;35738;49.890;5.930;2024-03-23T08:23:08;95372.41;;;3.61;100.00
49841;BME280;35738;49.890;5.930;2024-03-23T08:25:34;95372.78;;;3.48;100.00
49841;BME280;35738;49.890;5.930;2024-03-23T08:28:00;95365.13;;;3.37;100.00
49841;BME280;35738;49.890;5.930;2024-03-23T08:30:25;95372.69;;;3.38;100.00
49841;BME280;35738;49.890;5.930;2024-03-23T08:32:52;95348.56;;;3.53;100.00
49841;BME280;35738;49.890;5.930;2024-03-23T08:35:17;95362.47;;;3.58;100.00
49841;BME280;35738;49.890;5.930;2024-03-23T08:37:43;95375.56;;;3.63;100.00
49841;BME280;35738;49.890;5.930;2024-03-23T08:40:09;95370.44;;;3.74;100.00
49841;BME280;35738;49.890;5.930;2024-03-23T08:42:35;95362.25;;;3.92;100.00
49841;BME280;35738;49.890;5.930;2024-03-23T08:45:00;95373.88;;;3.79;100.00
49841;BME280;35738;49.890;5.930;2024-03-23T08:47:26;95369.63;;;4.00;100.00
49841;BME280;35738;49.890;5.930;2024-03-23T08:49:52;95367.09;;;3.78;100.00
49841;BME280;35738;49.890;5.930;2024-03-23T08:52:18;95366.84;;;3.80;100.00
49841;BME280;35738;49.890;5.930;2024-03-23T08:54:44;95359.41;;;3.67;100.00
49841;BME280;35738;49.890;5.930;2024-03-23T08:57:09;95375.34;;;3.97;100.00
49841;BME280;35738;49.890;5.930;2024-03-23T08:59:35;95376.50;;;4.11;100.00
49841;BME280;35738;49.890;5.930;2024-03-23T09:02:01;95382.88;;;3.93;100.00
49841;BME280;35738;49.890;5.930;2024-03-23T09:04:26;95372.19;;;3.95;100.00
49841;BME280;35738;49.890;5.930;2024-03-23T09:06:52;95367.31;;;4.09;100.00
49841;BME280;35738;49.890;5.930;2024-03-23T09:09:17;95365.47;;;4.04;100.00
49841;BME280;35738;49.890;5.930;2024-03-23T09:11:45;95367.47;;;3.92;100.00
49841;BME280;35738;49.890;5.930;2024-03-23T09:14:11;95358.16;;;4.06;100.00
49841;BME280;35738;49.890;5.930;2024-03-23T09:16:36;95361.97;;;4.25;100.00
49841;BME280;35738;49.890;5.930;2024-03-23T09:19:02;95356.31;;;4.39;100.00
49841;BME280;35738;49.890;5.930;2024-03-23T09:21:28;95351.44;;;4.52;100.00
49841;BME280;35738;49.890;5.930;2024-03-23T09:23:54;95352.38;;;4.83;100.00
49841;BME280;35738;49.890;5.930;2024-03-23T09:26:20;95358.09;;;4.80;100.00
49841;BME280;35738;49.890;5.930;2024-03-23T09:28:48;95344.97;;;4.65;100.00
49841;BME280;35738;49.890;5.930;2024-03-23T09:31:14;95338.16;;;4.64;100.00
49841;BME280;35738;49.890;5.930;2024-03-23T09:33:40;95341.88;;;4.73;100.00
49841;BME280;35738;49.890;5.930;2024-03-23T09:36:07;95345.09;;;5.01;100.00
49841;BME280;35738;49.890;5.930;2024-03-23T09:38:33;95343.00;;;4.93;100.00
49841;BME280;35738;49.890;5.930;2024-03-23T09:40:59;95339.78;;;4.80;100.00
49841;BME280;35738;49.890;5.930;2024-03-23T09:43:25;95330.00;;;4.55;98.24
49841;BME280;35738;49.890;5.930;2024-03-23T09:45:51;95332.06;;;4.06;97.14
49841;BME280;35738;49.890;5.930;2024-03-23T09:48:18;95359.53;;;3.82;100.00
49841;BME280;35738;49.890;5.930;2024-03-23T09:50:45;95376.13;;;3.17;100.00
49841;BME280;35738;49.890;5.930;2024-03-23T09:53:12;95374.47;;;2.67;100.00
49841;BME280;35738;49.890;5.930;2024-03-23T09:55:39;95389.28;;;2.45;100.00
49841;BME280;35738;49.890;5.930;2024-03-23T09:58:05;95388.75;;;2.09;100.00
49841;BME280;35738;49.890;5.930;2024-03-23T10:00:35;95398.28;;;1.87;100.00
49841;BME280;35738;49.890;5.930;2024-03-23T10:03:01;95386.09;;;1.59;100.00
49841;BME280;35738;49.890;5.930;2024-03-23T10:05:28;95386.31;;;1.29;100.00
49841;BME280;35738;49.890;5.930;2024-03-23T10:07:54;95396.38;;;0.97;100.00
49841;BME280;35738;49.890;5.930;2024-03-23T10:10:20;95381.94;;;0.89;100.00
49841;BME280;35738;49.890;5.930;2024-03-23T10:12:49;95378.50;;;1.00;100.00
49841;BME280;35738;49.890;5.930;2024-03-23T10:15:19;95375.53;;;1.08;100.00
49841;BME280;35738;49.890;5.930;2024-03-23T10:17:46;95372.44;;;1.23;100.00
49841;BME280;35738;49.890;5.930;2024-03-23T10:20:12;95383.53;;;1.47;100.00
49841;BME280;35738;49.890;5.930;2024-03-23T10:22:38;95379.19;;;1.81;100.00
49841;BME280;35738;49.890;5.930;2024-03-23T10:25:11;95354.13;;;2.25;100.00
49841;BME280;35738;49.890;5.930;2024-03-23T10:27:36;95361.44;;;2.28;100.00
49841;BME280;35738;49.890;5.930;2024-03-23T10:30:10;95363.97;;;2.23;100.00
49841;BME280;35738;49.890;5.930;2024-03-23T10:32:37;95365.94;;;2.16;100.00
49841;BME280;35738;49.890;5.930;2024-03-23T10:35:18;95369.53;;;2.49;100.00
49841;BME280;35738;49.890;5.930;2024-03-23T10:37:44;95363.69;;;3.02;100.00
49841;BME280;35738;49.890;5.930;2024-03-23T10:40:12;95363.31;;;2.93;100.00
49841;BME280;35738;49.890;5.930;2024-03-23T10:42:38;95357.06;;;3.38;100.00
49841;BME280;35738;49.890;5.930;2024-03-23T10:45:05;95348.78;;;3.73;100.00
49841;BME280;35738;49.890;5.930;2024-03-23T10:47:31;95354.28;;;3.50;100.00
49841;BME280;35738;49.890;5.930;2024-03-23T10:49:58;95352.22;;;3.79;100.00
49841;BME280;35738;49.890;5.930;2024-03-23T10:52:23;95344.56;;;3.40;100.00
49841;BME280;35738;49.890;5.930;2024-03-23T10:54:51;95346.28;;;3.88;100.00
49841;BME280;35738;49.890;5.930;2024-03-23T10:57:44;95364.19;;;3.75;100.00
49841;BME280;35738;49.890;5.930;2024-03-23T11:00:11;95335.63;;;3.95;100.00
49841;BME280;35738;49.890;5.930;2024-03-23T11:02:37;95338.78;;;3.97;100.00
49841;BME280;35738;49.890;5.930;2024-03-23T11:07:52;95306.94;;;4.00;100.00
49841;BME280;35738;49.890;5.930;2024-03-23T11:10:29;95356.41;;;4.17;100.00
49841;BME280;35738;49.890;5.930;2024-03-23T11:13:21;95358.09;;;4.33;100.00
49841;BME280;35738;49.890;5.930;2024-03-23T11:15:47;95349.69;;;4.68;100.00
49841;BME280;35738;49.890;5.930;2024-03-23T11:18:20;95311.13;;;5.01;100.00
49841;BME280;35738;49.890;5.930;2024-03-23T11:20:46;95341.41;;;4.86;100.00
49841;BME280;35738;49.890;5.930;2024-03-23T11:23:27;95324.63;;;4.77;100.00
49841;BME280;35738;49.890;5.930;2024-03-23T11:25:53;95336.63;;;4.73;100.00
49841;BME280;35738;49.890;5.930;2024-03-23T11:28:19;95336.13;;;4.81;100.00
49841;BME280;35738;49.890;5.930;2024-03-23T11:30:45;95313.63;;;4.65;100.00
49841;BME280;35738;49.890;5.930;2024-03-23T11:33:10;95304.44;;;4.63;100.00
49841;BME280;35738;49.890;5.930;2024-03-23T11:35:40;95321.75;;;4.74;100.00
49841;BME280;35738;49.890;5.930;2024-03-23T11:38:18;95302.22;;;5.02;100.00
49841;BME280;35738;49.890;5.930;2024-03-23T11:40:46;95309.78;;;4.88;100.00
49841;BME280;35738;49.890;5.930;2024-03-23T11:43:16;95314.28;;;5.13;100.00
49841;BME280;35738;49.890;5.930;2024-03-23T11:45:46;95300.53;;;5.78;100.00
49841;BME280;35738;49.890;5.930;2024-03-23T11:48:14;95308.34;;;5.53;100.00
49841;BME280;35738;49.890;5.930;2024-03-23T11:50:41;95299.19;;;5.45;100.00
49841;BME280;35738;49.890;5.930;2024-03-23T11:53:17;95312.41;;;4.93;100.00
49841;BME280;35738;49.890;5.930;2024-03-23T11:55:57;95289.84;;;4.72;100.00
49841;BME280;35738;49.890;5.930;2024-03-23T11:58:24;95297.50;;;4.99;100.00
49841;BME280;35738;49.890;5.930;2024-03-23T12:01:03;95313.13;;;4.73;98.97
49841;BME280;35738;49.890;5.930;2024-03-23T12:03:31;95303.28;;;4.43;99.84
49841;BME280;35738;49.890;5.930;2024-03-23T12:06:02;95301.88;;;3.83;100.00
49841;BME280;35738;49.890;5.930;2024-03-23T12:11:11;95301.50;;;3.38;100.00
49841;BME280;35738;49.890;5.930;2024-03-23T12:13:38;95307.06;;;3.19;100.00
49841;BME280;35738;49.890;5.930;2024-03-23T12:16:11;95296.81;;;3.13;100.00
49841;BME280;35738;49.890;5.930;2024-03-23T12:18:41;95291.06;;;3.11;100.00
49841;BME280;35738;49.890;5.930;2024-03-23T12:21:08;95289.44;;;3.04;100.00
49841;BME280;35738;49.890;5.930;2024-03-23T12:23:34;95289.31;;;2.94;100.00
49841;BME280;35738;49.890;5.930;2024-03-23T12:26:00;95282.47;;;2.88;100.00
49841;BME280;35738;49.890;5.930;2024-03-23T12:28:26;95281.94;;;2.86;100.00
49841;BME280;35738;49.890;5.930;2024-03-23T12:30:52;95274.97;;;2.92;100.00
49841;BME280;35738;49.890;5.930;2024-03-23T12:33:22;95283.38;;;3.26;100.00
49841;BME280;35738;49.890;5.930;2024-03-23T12:35:48;95286.28;;;3.29;100.00
49841;BME280;35738;49.890;5.930;2024-03-23T12:38:14;95297.78;;;3.33;100.00
49841;BME280;35738;49.890;5.930;2024-03-23T12:40:40;95295.94;;;3.29;100.00
49841;BME280;35738;49.890;5.930;2024-03-23T12:43:06;95308.06;;;2.91;100.00
49841;BME280;35738;49.890;5.930;2024-03-23T12:45:33;95332.59;;;2.13;100.00
49841;BME280;35738;49.890;5.930;2024-03-23T12:47:58;95308.72;;;0.92;100.00
49841;BME280;35738;49.890;5.930;2024-03-23T12:50:24;95321.47;;;0.53;100.00
49841;BME280;35738;49.890;5.930;2024-03-23T12:52:50;95338.44;;;0.44;100.00
49841;BME280;35738;49.890;5.930;2024-03-23T12:55:16;95348.03;;;0.32;100.00
49841;BME280;35738;49.890;5.930;2024-03-23T12:57:42;95339.81;;;0.23;100.00
49841;BME280;35738;49.890;5.930;2024-03-23T13:00:08;95330.56;;;0.79;100.00
49841;BME280;35738;49.890;5.930;2024-03-23T13:02:38;95312.88;;;1.50;100.00
49841;BME280;35738;49.890;5.930;2024-03-23T13:05:04;95303.88;;;2.08;100.00
49841;BME280;35738;49.890;5.930;2024-03-23T13:07:30;95304.38;;;2.43;100.00
49841;BME280;35738;49.890;5.930;2024-03-23T13:09:55;95312.97;;;2.66;100.00
49841;BME280;35738;49.890;5.930;2024-03-23T13:12:22;95314.56;;;2.67;100.00
49841;BME280;35738;49.890;5.930;2024-03-23T13:14:48;95310.63;;;2.64;100.00
49841;BME280;35738;49.890;5.930;2024-03-23T13:17:14;95280.06;;;2.38;100.00
49841;BME280;35738;49.890;5.930;2024-03-23T13:19:40;95296.47;;;2.38;100.00
49841;BME280;35738;49.890;5.930;2024-03-23T13:22:06;95297.88;;;2.24;100.00
49841;BME280;35738;49.890;5.930;2024-03-23T13:24:32;95298.56;;;2.20;100.00
49841;BME280;35738;49.890;5.930;2024-03-23T13:26:58;95287.84;;;2.16;100.00
49841;BME280;35738;49.890;5.930;2024-03-23T13:29:24;95282.16;;;2.19;100.00
49841;BME280;35738;49.890;5.930;2024-03-23T13:31:51;95293.06;;;2.16;100.00
49841;BME280;35738;49.890;5.930;2024-03-23T13:34:18;95273.81;;;2.17;100.00
49841;BME280;35738;49.890;5.930;2024-03-23T13:36:45;95266.38;;;2.26;100.00
49841;BME280;35738;49.890;5.930;2024-03-23T13:39:11;95299.63;;;2.40;100.00
49841;BME280;35738;49.890;5.930;2024-03-23T13:41:41;95281.28;;;2.74;100.00
49841;BME280;35738;49.890;5.930;2024-03-23T13:44:08;95279.28;;;2.81;100.00
49841;BME280;35738;49.890;5.930;2024-03-23T13:46:36;95278.22;;;3.04;100.00
49841;BME280;35738;49.890;5.930;2024-03-23T13:49:02;95292.28;;;3.30;100.00
49841;BME280;35738;49.890;5.930;2024-03-23T13:51:28;95293.28;;;3.24;100.00
49841;BME280;35738;49.890;5.930;2024-03-23T13:53:54;95298.16;;;2.93;100.00
49841;BME280;35738;49.890;5.930;2024-03-23T13:56:20;95294.78;;;2.93;100.00
49841;BME280;35738;49.890;5.930;2024-03-23T13:58:46;95283.59;;;2.70;100.00
49841;BME280;35738;49.890;5.930;2024-03-23T14:01:15;95295.34;;;2.73;100.00